sensor_id;sensor_type;location;lat;lon;timestamp;P1;durP1;ratioP1;P2;durP2;ratioP2
5279;SDS011;2663;53.588;10.010;2023-07-30T00:02:16;11.43;;;6.67;;
5279;SDS011;2663;53.588;10.010;2023-07-30T00:04:43;12.17;;;6.60;;
5279;SDS011;2663;53.588;10.010;2023-07-30T00:07:10;9.23;;;6.80;;
5279;SDS011;2663;53.588;10.010;2023-07-30T00:09:38;16.43;;;6.40;;
5279;SDS011;2663;53.588;10.010;2023-07-30T00:12:05;8.43;;;7.53;;
5279;SDS011;2663;53.588;10.010;2023-07-30T00:14:33;10.40;;;5.63;;
5279;SDS011;2663;53.588;10.010;2023-07-30T00:17:00;9.63;;;6.80;;
5279;SDS011;2663;53.588;10.010;2023-07-30T00:19:28;9.00;;;6.60;;
5279;SDS011;2663;53.588;10.010;2023-07-30T00:21:54;7.20;;;6.03;;
5279;SDS011;2663;53.588;10.010;2023-07-30T00:24:21;6.70;;;5.80;;
5279;SDS011;2663;53.588;10.010;2023-07-30T00:26:48;7.10;;;5.77;;
5279;SDS011;2663;53.588;10.010;2023-07-30T00:29:15;8.80;;;6.73;;
5279;SDS011;2663;53.588;10.010;2023-07-30T00:31:41;10.00;;;5.63;;
5279;SDS011;2663;53.588;10.010;2023-07-30T00:34:08;8.57;;;5.77;;
5279;SDS011;2663;53.588;10.010;2023-07-30T00:36:35;7.70;;;5.27;;
5279;SDS011;2663;53.588;10.010;2023-07-30T00:39:01;5.87;;;4.80;;
5279;SDS011;2663;53.588;10.010;2023-07-30T00:41:29;5.30;;;4.80;;
5279;SDS011;2663;53.588;10.010;2023-07-30T00:43:55;7.00;;;4.70;;
5279;SDS011;2663;53.588;10.010;2023-07-30T00:46:22;6.50;;;4.90;;
5279;SDS011;2663;53.588;10.010;2023-07-30T00:48:49;7.50;;;5.70;;
5279;SDS011;2663;53.588;10.010;2023-07-30T00:51:16;10.60;;;5.60;;
5279;SDS011;2663;53.588;10.010;2023-07-30T00:53:43;22.30;;;13.80;;
5279;SDS011;2663;53.588;10.010;2023-07-30T00:56:10;6.90;;;5.97;;
5279;SDS011;2663;53.588;10.010;2023-07-30T00:58:37;7.70;;;5.50;;
5279;SDS011;2663;53.588;10.010;2023-07-30T01:01:04;8.83;;;4.90;;
5279;SDS011;2663;53.588;10.010;2023-07-30T01:03:31;12.13;;;5.30;;
5279;SDS011;2663;53.588;10.010;2023-07-30T01:05:58;6.40;;;5.13;;
5279;SDS011;2663;53.588;10.010;2023-07-30T01:08:25;7.73;;;4.70;;
5279;SDS011;2663;53.588;10.010;2023-07-30T01:10:52;7.40;;;4.80;;
5279;SDS011;2663;53.588;10.010;2023-07-30T01:13:20;6.00;;;5.40;;
5279;SDS011;2663;53.588;10.010;2023-07-30T01:15:46;9.53;;;5.33;;
5279;SDS011;2663;53.588;10.010;2023-07-30T01:18:14;5.53;;;4.70;;
5279;SDS011;2663;53.588;10.010;2023-07-30T01:20:40;5.80;;;4.93;;
5279;SDS011;2663;53.588;10.010;2023-07-30T01:23:07;6.23;;;5.07;;
5279;SDS011;2663;53.588;10.010;2023-07-30T01:25:35;6.00;;;5.37;;
5279;SDS011;2663;53.588;10.010;2023-07-30T01:28:03;13.83;;;5.67;;
5279;SDS011;2663;53.588;10.010;2023-07-30T01:30:34;7.07;;;5.40;;
5279;SDS011;2663;53.588;10.010;2023-07-30T01:33:06;16.20;;;5.53;;
5279;SDS011;2663;53.588;10.010;2023-07-30T01:35:36;6.57;;;5.57;;
5279;SDS011;2663;53.588;10.010;2023-07-30T01:38:03;7.50;;;6.40;;
5279;SDS011;2663;53.588;10.010;2023-07-30T01:40:32;8.37;;;6.20;;
5279;SDS011;2663;53.588;10.010;2023-07-30T01:42:59;8.93;;;6.67;;
5279;SDS011;2663;53.588;10.010;2023-07-30T01:45:26;9.20;;;6.77;;
5279;SDS011;2663;53.588;10.010;2023-07-30T01:47:52;10.50;;;7.77;;
5279;SDS011;2663;53.588;10.010;2023-07-30T01:50:19;14.47;;;8.83;;
5279;SDS011;2663;53.588;10.010;2023-07-30T01:52:46;6.03;;;5.47;;
5279;SDS011;2663;53.588;10.010;2023-07-30T01:55:13;8.37;;;7.27;;
5279;SDS011;2663;53.588;10.010;2023-07-30T01:57:39;9.57;;;7.47;;
5279;SDS011;2663;53.588;10.010;2023-07-30T02:00:06;10.80;;;6.90;;
5279;SDS011;2663;53.588;10.010;2023-07-30T02:02:33;11.03;;;8.13;;
5279;SDS011;2663;53.588;10.010;2023-07-30T02:08:49;15.47;;;9.80;;
5279;SDS011;2663;53.588;10.010;2023-07-30T02:11:15;12.03;;;10.30;;
5279;SDS011;2663;53.588;10.010;2023-07-30T02:13:42;16.47;;;10.37;;
5279;SDS011;2663;53.588;10.010;2023-07-30T02:16:09;12.63;;;9.97;;
5279;SDS011;2663;53.588;10.010;2023-07-30T02:18:35;11.77;;;9.10;;
5279;SDS011;2663;53.588;10.010;2023-07-30T02:21:02;10.90;;;8.30;;
5279;SDS011;2663;53.588;10.010;2023-07-30T02:23:29;10.60;;;8.77;;
5279;SDS011;2663;53.588;10.010;2023-07-30T02:25:55;10.63;;;8.60;;
5279;SDS011;2663;53.588;10.010;2023-07-30T02:28:22;16.53;;;9.23;;
5279;SDS011;2663;53.588;10.010;2023-07-30T02:30:49;9.63;;;8.73;;
5279;SDS011;2663;53.588;10.010;2023-07-30T02:33:16;12.30;;;8.33;;
5279;SDS011;2663;53.588;10.010;2023-07-30T02:35:43;11.77;;;9.60;;
5279;SDS011;2663;53.588;10.010;2023-07-30T02:38:10;15.50;;;10.87;;
5279;SDS011;2663;53.588;10.010;2023-07-30T02:40:36;13.90;;;10.50;;
5279;SDS011;2663;53.588;10.010;2023-07-30T02:43:03;15.90;;;11.10;;
5279;SDS011;2663;53.588;10.010;2023-07-30T02:45:30;16.80;;;11.17;;
5279;SDS011;2663;53.588;10.010;2023-07-30T02:47:57;16.30;;;10.30;;
5279;SDS011;2663;53.588;10.010;2023-07-30T02:50:23;16.00;;;11.53;;
5279;SDS011;2663;53.588;10.010;2023-07-30T02:52:50;14.87;;;11.83;;
5279;SDS011;2663;53.588;10.010;2023-07-30T02:55:17;14.93;;;11.50;;
5279;SDS011;2663;53.588;10.010;2023-07-30T02:57:44;11.90;;;10.67;;
5279;SDS011;2663;53.588;10.010;2023-07-30T03:00:11;16.83;;;12.00;;
5279;SDS011;2663;53.588;10.010;2023-07-30T03:02:39;13.93;;;11.83;;
5279;SDS011;2663;53.588;10.010;2023-07-30T03:05:06;17.37;;;13.90;;
5279;SDS011;2663;53.588;10.010;2023-07-30T03:07:33;16.93;;;12.63;;
5279;SDS011;2663;53.588;10.010;2023-07-30T03:10:00;14.30;;;12.37;;
5279;SDS011;2663;53.588;10.010;2023-07-30T03:12:27;18.20;;;13.53;;
5279;SDS011;2663;53.588;10.010;2023-07-30T03:14:54;19.83;;;13.40;;
5279;SDS011;2663;53.588;10.010;2023-07-30T03:17:20;15.77;;;13.00;;
5279;SDS011;2663;53.588;10.010;2023-07-30T03:19:47;23.50;;;12.97;;
5279;SDS011;2663;53.588;10.010;2023-07-30T03:22:14;19.17;;;14.97;;
5279;SDS011;2663;53.588;10.010;2023-07-30T03:24:41;18.17;;;14.10;;
5279;SDS011;2663;53.588;10.010;2023-07-30T03:27:07;22.73;;;14.00;;
5279;SDS011;2663;53.588;10.010;2023-07-30T03:29:34;22.43;;;14.10;;
5279;SDS011;2663;53.588;10.010;2023-07-30T03:32:01;19.27;;;14.83;;
5279;SDS011;2663;53.588;10.010;2023-07-30T03:34:27;18.13;;;13.87;;
5279;SDS011;2663;53.588;10.010;2023-07-30T03:36:54;20.60;;;14.63;;
5279;SDS011;2663;53.588;10.010;2023-07-30T03:39:21;27.30;;;14.50;;
5279;SDS011;2663;53.588;10.010;2023-07-30T03:41:48;20.50;;;13.67;;
5279;SDS011;2663;53.588;10.010;2023-07-30T03:44:15;21.40;;;14.40;;
5279;SDS011;2663;53.588;10.010;2023-07-30T03:46:42;21.70;;;14.27;;
5279;SDS011;2663;53.588;10.010;2023-07-30T03:49:09;23.70;;;15.57;;
5279;SDS011;2663;53.588;10.010;2023-07-30T03:51:36;20.73;;;15.03;;
5279;SDS011;2663;53.588;10.010;2023-07-30T03:54:05;20.90;;;14.60;;
5279;SDS011;2663;53.588;10.010;2023-07-30T03:56:32;21.73;;;14.70;;
5279;SDS011;2663;53.588;10.010;2023-07-30T03:58:58;17.90;;;13.63;;
5279;SDS011;2663;53.588;10.010;2023-07-30T04:01:25;20.07;;;14.23;;
5279;SDS011;2663;53.588;10.010;2023-07-30T04:03:52;20.03;;;14.37;;
5279;SDS011;2663;53.588;10.010;2023-07-30T04:06:18;18.37;;;15.03;;
5279;SDS011;2663;53.588;10.010;2023-07-30T04:08:45;22.23;;;13.30;;
5279;SDS011;2663;53.588;10.010;2023-07-30T04:11:12;19.40;;;14.47;;
5279;SDS011;2663;53.588;10.010;2023-07-30T04:13:39;21.90;;;15.47;;
5279;SDS011;2663;53.588;10.010;2023-07-30T04:16:07;26.30;;;15.03;;
5279;SDS011;2663;53.588;10.010;2023-07-30T04:18:33;30.93;;;19.10;;
5279;SDS011;2663;53.588;10.010;2023-07-30T04:21:00;22.00;;;13.67;;
5279;SDS011;2663;53.588;10.010;2023-07-30T04:23:27;23.23;;;13.50;;
5279;SDS011;2663;53.588;10.010;2023-07-30T04:25:53;26.37;;;14.13;;
5279;SDS011;2663;53.588;10.010;2023-07-30T04:28:20;23.10;;;12.13;;
5279;SDS011;2663;53.588;10.010;2023-07-30T04:30:47;22.90;;;11.90;;
5279;SDS011;2663;53.588;10.010;2023-07-30T04:33:14;17.90;;;12.53;;
5279;SDS011;2663;53.588;10.010;2023-07-30T04:35:41;38.47;;;12.67;;
5279;SDS011;2663;53.588;10.010;2023-07-30T04:38:07;28.97;;;12.80;;
5279;SDS011;2663;53.588;10.010;2023-07-30T04:40:34;20.83;;;13.60;;
5279;SDS011;2663;53.588;10.010;2023-07-30T04:43:01;20.57;;;12.73;;
5279;SDS011;2663;53.588;10.010;2023-07-30T04:45:27;21.80;;;12.37;;
5279;SDS011;2663;53.588;10.010;2023-07-30T04:47:54;22.00;;;11.10;;
5279;SDS011;2663;53.588;10.010;2023-07-30T04:50:21;15.33;;;10.93;;
5279;SDS011;2663;53.588;10.010;2023-07-30T04:52:47;17.30;;;10.90;;
5279;SDS011;2663;53.588;10.010;2023-07-30T04:55:14;19.47;;;10.90;;
5279;SDS011;2663;53.588;10.010;2023-07-30T04:57:41;16.40;;;11.07;;
5279;SDS011;2663;53.588;10.010;2023-07-30T05:00:08;29.10;;;12.67;;
5279;SDS011;2663;53.588;10.010;2023-07-30T05:02:35;16.37;;;10.80;;
5279;SDS011;2663;53.588;10.010;2023-07-30T05:05:01;17.90;;;10.60;;
5279;SDS011;2663;53.588;10.010;2023-07-30T05:07:28;20.60;;;10.63;;
5279;SDS011;2663;53.588;10.010;2023-07-30T05:09:55;17.60;;;10.50;;
5279;SDS011;2663;53.588;10.010;2023-07-30T05:12:22;19.07;;;8.63;;
5279;SDS011;2663;53.588;10.010;2023-07-30T05:14:48;13.00;;;9.80;;
5279;SDS011;2663;53.588;10.010;2023-07-30T05:17:15;16.70;;;9.90;;
5279;SDS011;2663;53.588;10.010;2023-07-30T05:19:41;20.73;;;11.07;;
5279;SDS011;2663;53.588;10.010;2023-07-30T05:22:08;19.23;;;9.50;;
5279;SDS011;2663;53.588;10.010;2023-07-30T05:24:35;21.70;;;9.87;;
5279;SDS011;2663;53.588;10.010;2023-07-30T05:27:03;23.27;;;9.27;;
5279;SDS011;2663;53.588;10.010;2023-07-30T05:29:30;18.47;;;9.13;;
5279;SDS011;2663;53.588;10.010;2023-07-30T05:31:57;15.97;;;9.50;;
5279;SDS011;2663;53.588;10.010;2023-07-30T05:34:24;19.27;;;8.50;;
5279;SDS011;2663;53.588;10.010;2023-07-30T05:36:51;15.40;;;9.67;;
5279;SDS011;2663;53.588;10.010;2023-07-30T05:39:17;16.23;;;9.50;;
5279;SDS011;2663;53.588;10.010;2023-07-30T05:41:44;21.80;;;10.03;;
5279;SDS011;2663;53.588;10.010;2023-07-30T05:44:11;17.90;;;10.90;;
5279;SDS011;2663;53.588;10.010;2023-07-30T05:46:38;19.40;;;10.17;;
5279;SDS011;2663;53.588;10.010;2023-07-30T05:49:04;13.33;;;9.43;;
5279;SDS011;2663;53.588;10.010;2023-07-30T05:51:31;28.70;;;10.87;;
5279;SDS011;2663;53.588;10.010;2023-07-30T05:53:58;18.90;;;9.50;;
5279;SDS011;2663;53.588;10.010;2023-07-30T05:56:25;31.70;;;11.00;;
5279;SDS011;2663;53.588;10.010;2023-07-30T05:58:51;13.23;;;9.27;;
5279;SDS011;2663;53.588;10.010;2023-07-30T06:01:18;14.13;;;10.17;;
5279;SDS011;2663;53.588;10.010;2023-07-30T06:03:46;20.57;;;9.37;;
5279;SDS011;2663;53.588;10.010;2023-07-30T06:06:13;20.13;;;9.87;;
5279;SDS011;2663;53.588;10.010;2023-07-30T06:08:39;27.93;;;10.50;;
5279;SDS011;2663;53.588;10.010;2023-07-30T06:11:06;26.23;;;9.90;;
5279;SDS011;2663;53.588;10.010;2023-07-30T06:13:33;21.43;;;9.30;;
5279;SDS011;2663;53.588;10.010;2023-07-30T06:16:00;21.43;;;9.53;;
5279;SDS011;2663;53.588;10.010;2023-07-30T06:18:27;35.57;;;10.60;;
5279;SDS011;2663;53.588;10.010;2023-07-30T06:20:53;17.07;;;11.20;;
5279;SDS011;2663;53.588;10.010;2023-07-30T06:23:20;23.87;;;10.80;;
5279;SDS011;2663;53.588;10.010;2023-07-30T06:25:47;25.73;;;10.10;;
5279;SDS011;2663;53.588;10.010;2023-07-30T06:28:13;23.13;;;11.17;;
5279;SDS011;2663;53.588;10.010;2023-07-30T06:30:40;18.77;;;8.23;;
5279;SDS011;2663;53.588;10.010;2023-07-30T06:33:07;26.97;;;9.80;;
5279;SDS011;2663;53.588;10.010;2023-07-30T06:35:33;32.23;;;9.87;;
5279;SDS011;2663;53.588;10.010;2023-07-30T06:38:00;21.30;;;10.87;;
5279;SDS011;2663;53.588;10.010;2023-07-30T06:40:27;28.70;;;13.57;;
5279;SDS011;2663;53.588;10.010;2023-07-30T06:42:54;33.63;;;13.30;;
5279;SDS011;2663;53.588;10.010;2023-07-30T06:45:20;30.77;;;13.90;;
5279;SDS011;2663;53.588;10.010;2023-07-30T06:47:47;29.57;;;13.87;;
5279;SDS011;2663;53.588;10.010;2023-07-30T06:50:14;28.73;;;14.63;;
5279;SDS011;2663;53.588;10.010;2023-07-30T06:52:41;29.30;;;15.13;;
5279;SDS011;2663;53.588;10.010;2023-07-30T06:55:07;49.37;;;16.80;;
5279;SDS011;2663;53.588;10.010;2023-07-30T06:57:34;32.63;;;17.47;;
5279;SDS011;2663;53.588;10.010;2023-07-30T07:00:01;40.57;;;16.90;;
5279;SDS011;2663;53.588;10.010;2023-07-30T07:02:29;31.00;;;16.00;;
5279;SDS011;2663;53.588;10.010;2023-07-30T07:04:56;39.20;;;18.07;;
5279;SDS011;2663;53.588;10.010;2023-07-30T07:07:23;37.87;;;15.77;;
5279;SDS011;2663;53.588;10.010;2023-07-30T07:09:49;24.90;;;14.33;;
5279;SDS011;2663;53.588;10.010;2023-07-30T07:12:16;28.30;;;14.77;;
5279;SDS011;2663;53.588;10.010;2023-07-30T07:14:43;32.90;;;14.70;;
5279;SDS011;2663;53.588;10.010;2023-07-30T07:17:09;34.23;;;13.63;;
5279;SDS011;2663;53.588;10.010;2023-07-30T07:19:36;38.83;;;13.40;;
5279;SDS011;2663;53.588;10.010;2023-07-30T07:22:03;35.30;;;16.30;;
5279;SDS011;2663;53.588;10.010;2023-07-30T07:24:31;27.07;;;14.30;;
5279;SDS011;2663;53.588;10.010;2023-07-30T07:26:57;38.40;;;14.43;;
5279;SDS011;2663;53.588;10.010;2023-07-30T07:29:24;35.60;;;15.10;;
5279;SDS011;2663;53.588;10.010;2023-07-30T07:31:51;33.43;;;12.70;;
5279;SDS011;2663;53.588;10.010;2023-07-30T07:34:19;41.07;;;14.80;;
5279;SDS011;2663;53.588;10.010;2023-07-30T07:36:46;38.30;;;13.57;;
5279;SDS011;2663;53.588;10.010;2023-07-30T07:39:13;50.93;;;14.13;;
5279;SDS011;2663;53.588;10.010;2023-07-30T07:41:39;35.73;;;12.10;;
5279;SDS011;2663;53.588;10.010;2023-07-30T07:44:06;47.00;;;11.40;;
5279;SDS011;2663;53.588;10.010;2023-07-30T07:46:33;31.93;;;10.60;;
5279;SDS011;2663;53.588;10.010;2023-07-30T07:48:59;25.43;;;12.33;;
5279;SDS011;2663;53.588;10.010;2023-07-30T07:51:26;27.13;;;10.80;;
5279;SDS011;2663;53.588;10.010;2023-07-30T07:53:53;31.10;;;10.80;;
5279;SDS011;2663;53.588;10.010;2023-07-30T07:56:20;28.07;;;11.37;;
5279;SDS011;2663;53.588;10.010;2023-07-30T07:58:47;29.30;;;10.53;;
5279;SDS011;2663;53.588;10.010;2023-07-30T08:01:13;35.57;;;10.80;;
5279;SDS011;2663;53.588;10.010;2023-07-30T08:03:40;31.13;;;11.00;;
5279;SDS011;2663;53.588;10.010;2023-07-30T08:06:07;24.87;;;10.07;;
5279;SDS011;2663;53.588;10.010;2023-07-30T08:08:34;23.57;;;10.10;;
5279;SDS011;2663;53.588;10.010;2023-07-30T08:11:07;30.40;;;9.60;;
5279;SDS011;2663;53.588;10.010;2023-07-30T08:13:35;27.43;;;8.70;;
5279;SDS011;2663;53.588;10.010;2023-07-30T08:16:02;47.07;;;11.30;;
5279;SDS011;2663;53.588;10.010;2023-07-30T08:18:29;23.77;;;9.70;;
5279;SDS011;2663;53.588;10.010;2023-07-30T08:20:55;22.93;;;8.07;;
5279;SDS011;2663;53.588;10.010;2023-07-30T08:23:22;25.03;;;8.27;;
5279;SDS011;2663;53.588;10.010;2023-07-30T08:25:49;20.90;;;9.00;;
5279;SDS011;2663;53.588;10.010;2023-07-30T08:28:16;22.40;;;8.00;;
5279;SDS011;2663;53.588;10.010;2023-07-30T08:30:43;25.83;;;9.40;;
5279;SDS011;2663;53.588;10.010;2023-07-30T08:33:10;35.53;;;9.07;;
5279;SDS011;2663;53.588;10.010;2023-07-30T08:35:37;21.23;;;9.27;;
5279;SDS011;2663;53.588;10.010;2023-07-30T08:38:04;26.13;;;8.77;;
5279;SDS011;2663;53.588;10.010;2023-07-30T08:40:31;37.53;;;8.70;;
5279;SDS011;2663;53.588;10.010;2023-07-30T08:42:58;31.93;;;8.70;;
5279;SDS011;2663;53.588;10.010;2023-07-30T08:45:25;25.87;;;8.60;;
5279;SDS011;2663;53.588;10.010;2023-07-30T08:47:52;17.93;;;5.63;;
5279;SDS011;2663;53.588;10.010;2023-07-30T08:50:19;15.77;;;5.00;;
5279;SDS011;2663;53.588;10.010;2023-07-30T08:52:46;13.70;;;5.60;;
5279;SDS011;2663;53.588;10.010;2023-07-30T08:55:13;14.40;;;4.70;;
5279;SDS011;2663;53.588;10.010;2023-07-30T08:57:41;23.23;;;6.10;;
5279;SDS011;2663;53.588;10.010;2023-07-30T09:00:10;17.20;;;4.97;;
5279;SDS011;2663;53.588;10.010;2023-07-30T09:02:52;21.20;;;5.00;;
5279;SDS011;2663;53.588;10.010;2023-07-30T09:05:21;18.60;;;5.23;;
5279;SDS011;2663;53.588;10.010;2023-07-30T09:07:49;14.40;;;5.10;;
5279;SDS011;2663;53.588;10.010;2023-07-30T09:10:16;17.93;;;4.70;;
5279;SDS011;2663;53.588;10.010;2023-07-30T09:12:43;24.07;;;5.10;;
5279;SDS011;2663;53.588;10.010;2023-07-30T09:15:12;23.43;;;5.30;;
5279;SDS011;2663;53.588;10.010;2023-07-30T09:17:39;20.50;;;5.10;;
5279;SDS011;2663;53.588;10.010;2023-07-30T09:20:06;26.20;;;5.27;;
5279;SDS011;2663;53.588;10.010;2023-07-30T09:22:33;21.50;;;4.70;;
5279;SDS011;2663;53.588;10.010;2023-07-30T09:25:06;17.67;;;4.80;;
5279;SDS011;2663;53.588;10.010;2023-07-30T09:27:33;15.63;;;4.80;;
5279;SDS011;2663;53.588;10.010;2023-07-30T09:30:01;25.30;;;5.37;;
5279;SDS011;2663;53.588;10.010;2023-07-30T09:32:32;20.63;;;4.87;;
5279;SDS011;2663;53.588;10.010;2023-07-30T09:35:10;17.47;;;4.40;;
5279;SDS011;2663;53.588;10.010;2023-07-30T09:37:38;13.50;;;3.80;;
5279;SDS011;2663;53.588;10.010;2023-07-30T09:40:12;20.97;;;4.50;;
5279;SDS011;2663;53.588;10.010;2023-07-30T09:42:45;18.80;;;4.70;;
5279;SDS011;2663;53.588;10.010;2023-07-30T09:45:17;9.23;;;3.93;;
5279;SDS011;2663;53.588;10.010;2023-07-30T09:47:49;15.87;;;4.43;;
5279;SDS011;2663;53.588;10.010;2023-07-30T09:50:17;12.83;;;4.17;;
5279;SDS011;2663;53.588;10.010;2023-07-30T09:52:43;11.83;;;4.83;;
5279;SDS011;2663;53.588;10.010;2023-07-30T09:55:11;18.33;;;6.33;;
5279;SDS011;2663;53.588;10.010;2023-07-30T09:57:38;18.50;;;3.73;;
5279;SDS011;2663;53.588;10.010;2023-07-30T10:00:05;24.10;;;3.83;;
5279;SDS011;2663;53.588;10.010;2023-07-30T10:02:40;14.43;;;5.37;;
5279;SDS011;2663;53.588;10.010;2023-07-30T10:05:08;17.87;;;4.60;;
5279;SDS011;2663;53.588;10.010;2023-07-30T10:07:42;17.03;;;4.10;;
5279;SDS011;2663;53.588;10.010;2023-07-30T10:10:14;15.37;;;4.60;;
5279;SDS011;2663;53.588;10.010;2023-07-30T10:12:41;15.67;;;4.53;;
5279;SDS011;2663;53.588;10.010;2023-07-30T10:15:10;15.83;;;5.03;;
5279;SDS011;2663;53.588;10.010;2023-07-30T10:17:36;15.00;;;4.53;;
5279;SDS011;2663;53.588;10.010;2023-07-30T10:20:26;14.33;;;4.60;;
5279;SDS011;2663;53.588;10.010;2023-07-30T10:22:56;30.13;;;4.80;;
5279;SDS011;2663;53.588;10.010;2023-07-30T10:30:57;17.53;;;3.63;;
5279;SDS011;2663;53.588;10.010;2023-07-30T10:33:43;9.83;;;3.70;;
5279;SDS011;2663;53.588;10.010;2023-07-30T10:36:10;14.43;;;3.77;;
5279;SDS011;2663;53.588;10.010;2023-07-30T10:38:37;10.03;;;4.00;;
5279;SDS011;2663;53.588;10.010;2023-07-30T10:41:06;14.20;;;3.97;;
5279;SDS011;2663;53.588;10.010;2023-07-30T10:43:35;14.17;;;5.53;;
5279;SDS011;2663;53.588;10.010;2023-07-30T10:46:09;17.20;;;5.03;;
5279;SDS011;2663;53.588;10.010;2023-07-30T10:48:41;20.23;;;4.93;;
5279;SDS011;2663;53.588;10.010;2023-07-30T10:51:11;12.00;;;4.27;;
5279;SDS011;2663;53.588;10.010;2023-07-30T10:53:48;15.63;;;4.10;;
5279;SDS011;2663;53.588;10.010;2023-07-30T10:56:17;19.10;;;5.57;;
5279;SDS011;2663;53.588;10.010;2023-07-30T10:58:51;10.27;;;3.60;;
5279;SDS011;2663;53.588;10.010;2023-07-30T11:01:19;10.00;;;3.53;;
5279;SDS011;2663;53.588;10.010;2023-07-30T11:03:49;15.83;;;4.57;;
5279;SDS011;2663;53.588;10.010;2023-07-30T11:06:23;14.07;;;3.60;;
5279;SDS011;2663;53.588;10.010;2023-07-30T11:08:50;12.67;;;3.40;;
5279;SDS011;2663;53.588;10.010;2023-07-30T11:11:17;11.80;;;3.63;;
5279;SDS011;2663;53.588;10.010;2023-07-30T11:13:45;11.17;;;3.73;;
5279;SDS011;2663;53.588;10.010;2023-07-30T11:16:13;10.80;;;3.80;;
5279;SDS011;2663;53.588;10.010;2023-07-30T11:18:41;11.43;;;3.33;;
5279;SDS011;2663;53.588;10.010;2023-07-30T11:21:10;12.83;;;2.73;;
5279;SDS011;2663;53.588;10.010;2023-07-30T11:23:39;14.00;;;3.13;;
5279;SDS011;2663;53.588;10.010;2023-07-30T11:26:09;14.13;;;3.80;;
5279;SDS011;2663;53.588;10.010;2023-07-30T11:28:43;13.00;;;3.67;;
5279;SDS011;2663;53.588;10.010;2023-07-30T11:31:11;9.73;;;3.00;;
5279;SDS011;2663;53.588;10.010;2023-07-30T11:33:46;13.13;;;3.03;;
5279;SDS011;2663;53.588;10.010;2023-07-30T11:36:18;12.43;;;3.33;;
5279;SDS011;2663;53.588;10.010;2023-07-30T11:38:47;13.60;;;3.30;;
5279;SDS011;2663;53.588;10.010;2023-07-30T11:41:14;16.27;;;4.00;;
5279;SDS011;2663;53.588;10.010;2023-07-30T11:43:42;9.57;;;3.30;;
5279;SDS011;2663;53.588;10.010;2023-07-30T11:46:12;15.60;;;4.00;;
5279;SDS011;2663;53.588;10.010;2023-07-30T11:48:43;7.40;;;3.23;;
5279;SDS011;2663;53.588;10.010;2023-07-30T11:51:18;11.30;;;2.93;;
5279;SDS011;2663;53.588;10.010;2023-07-30T11:53:55;9.67;;;3.47;;
5279;SDS011;2663;53.588;10.010;2023-07-30T11:56:31;6.27;;;2.63;;
5279;SDS011;2663;53.588;10.010;2023-07-30T11:58:59;14.60;;;3.03;;
5279;SDS011;2663;53.588;10.010;2023-07-30T12:01:34;6.77;;;2.53;;
5279;SDS011;2663;53.588;10.010;2023-07-30T12:04:03;7.10;;;2.70;;
5279;SDS011;2663;53.588;10.010;2023-07-30T12:06:41;13.30;;;2.73;;
5279;SDS011;2663;53.588;10.010;2023-07-30T12:14:24;7.80;;;2.80;;
5279;SDS011;2663;53.588;10.010;2023-07-30T12:16:56;7.03;;;2.03;;
5279;SDS011;2663;53.588;10.010;2023-07-30T12:19:23;10.67;;;2.70;;
5279;SDS011;2663;53.588;10.010;2023-07-30T12:21:50;9.50;;;2.20;;
5279;SDS011;2663;53.588;10.010;2023-07-30T12:24:17;7.50;;;2.33;;
5279;SDS011;2663;53.588;10.010;2023-07-30T12:26:44;6.87;;;2.70;;
5279;SDS011;2663;53.588;10.010;2023-07-30T12:29:10;15.30;;;3.03;;
5279;SDS011;2663;53.588;10.010;2023-07-30T12:31:37;9.07;;;2.30;;
5279;SDS011;2663;53.588;10.010;2023-07-30T12:34:04;10.50;;;3.37;;
5279;SDS011;2663;53.588;10.010;2023-07-30T12:36:31;5.80;;;2.10;;
5279;SDS011;2663;53.588;10.010;2023-07-30T12:38:58;9.07;;;2.37;;
5279;SDS011;2663;53.588;10.010;2023-07-30T12:41:24;4.23;;;1.67;;
5279;SDS011;2663;53.588;10.010;2023-07-30T12:43:55;5.47;;;2.30;;
5279;SDS011;2663;53.588;10.010;2023-07-30T12:46:23;18.97;;;2.67;;
5279;SDS011;2663;53.588;10.010;2023-07-30T12:48:51;8.57;;;2.20;;
5279;SDS011;2663;53.588;10.010;2023-07-30T12:51:17;11.90;;;2.57;;
5279;SDS011;2663;53.588;10.010;2023-07-30T12:53:44;9.47;;;2.80;;
5279;SDS011;2663;53.588;10.010;2023-07-30T12:56:11;13.33;;;2.37;;
5279;SDS011;2663;53.588;10.010;2023-07-30T12:58:38;11.50;;;2.50;;
5279;SDS011;2663;53.588;10.010;2023-07-30T13:01:06;10.17;;;2.60;;
5279;SDS011;2663;53.588;10.010;2023-07-30T13:03:33;7.90;;;2.40;;
5279;SDS011;2663;53.588;10.010;2023-07-30T13:06:00;11.20;;;2.77;;
5279;SDS011;2663;53.588;10.010;2023-07-30T13:08:27;6.43;;;2.80;;
5279;SDS011;2663;53.588;10.010;2023-07-30T13:10:53;11.33;;;3.33;;
5279;SDS011;2663;53.588;10.010;2023-07-30T13:13:20;4.40;;;2.30;;
5279;SDS011;2663;53.588;10.010;2023-07-30T13:15:47;10.70;;;2.77;;
5279;SDS011;2663;53.588;10.010;2023-07-30T13:18:13;7.53;;;1.63;;
5279;SDS011;2663;53.588;10.010;2023-07-30T13:20:40;3.90;;;2.50;;
5279;SDS011;2663;53.588;10.010;2023-07-30T13:23:07;11.97;;;2.10;;
5279;SDS011;2663;53.588;10.010;2023-07-30T13:25:34;5.13;;;1.77;;
5279;SDS011;2663;53.588;10.010;2023-07-30T13:28:00;6.07;;;1.77;;
5279;SDS011;2663;53.588;10.010;2023-07-30T13:30:27;6.33;;;2.17;;
5279;SDS011;2663;53.588;10.010;2023-07-30T13:32:54;10.20;;;2.20;;
5279;SDS011;2663;53.588;10.010;2023-07-30T13:35:21;5.20;;;2.13;;
5279;SDS011;2663;53.588;10.010;2023-07-30T13:37:47;5.07;;;1.80;;
5279;SDS011;2663;53.588;10.010;2023-07-30T13:40:14;5.47;;;2.00;;
5279;SDS011;2663;53.588;10.010;2023-07-30T13:42:41;7.63;;;2.47;;
5279;SDS011;2663;53.588;10.010;2023-07-30T13:45:08;11.60;;;3.10;;
5279;SDS011;2663;53.588;10.010;2023-07-30T13:47:34;11.27;;;2.90;;
5279;SDS011;2663;53.588;10.010;2023-07-30T13:50:01;7.13;;;2.00;;
5279;SDS011;2663;53.588;10.010;2023-07-30T13:52:28;4.63;;;2.83;;
5279;SDS011;2663;53.588;10.010;2023-07-30T13:54:55;4.90;;;1.80;;
5279;SDS011;2663;53.588;10.010;2023-07-30T13:57:22;8.30;;;2.90;;
5279;SDS011;2663;53.588;10.010;2023-07-30T13:59:50;6.63;;;2.40;;
5279;SDS011;2663;53.588;10.010;2023-07-30T14:02:18;4.67;;;2.30;;
5279;SDS011;2663;53.588;10.010;2023-07-30T14:04:44;6.67;;;2.10;;
5279;SDS011;2663;53.588;10.010;2023-07-30T14:07:11;5.73;;;2.17;;
5279;SDS011;2663;53.588;10.010;2023-07-30T14:09:38;4.43;;;1.80;;
5279;SDS011;2663;53.588;10.010;2023-07-30T14:12:05;2.90;;;1.77;;
5279;SDS011;2663;53.588;10.010;2023-07-30T14:14:32;4.70;;;2.57;;
5279;SDS011;2663;53.588;10.010;2023-07-30T14:17:00;8.73;;;2.20;;
5279;SDS011;2663;53.588;10.010;2023-07-30T14:19:33;3.47;;;1.90;;
5279;SDS011;2663;53.588;10.010;2023-07-30T14:21:59;9.03;;;2.17;;
5279;SDS011;2663;53.588;10.010;2023-07-30T14:24:27;12.17;;;2.70;;
5279;SDS011;2663;53.588;10.010;2023-07-30T14:26:54;4.10;;;1.93;;
5279;SDS011;2663;53.588;10.010;2023-07-30T14:29:21;2.50;;;1.30;;
5279;SDS011;2663;53.588;10.010;2023-07-30T14:31:47;5.50;;;1.50;;
5279;SDS011;2663;53.588;10.010;2023-07-30T14:34:14;7.60;;;1.83;;
5279;SDS011;2663;53.588;10.010;2023-07-30T14:36:41;5.20;;;2.00;;
5279;SDS011;2663;53.588;10.010;2023-07-30T14:39:08;4.17;;;1.50;;
5279;SDS011;2663;53.588;10.010;2023-07-30T14:41:34;7.70;;;2.23;;
5279;SDS011;2663;53.588;10.010;2023-07-30T14:44:02;3.47;;;1.50;;
5279;SDS011;2663;53.588;10.010;2023-07-30T14:46:28;9.10;;;2.00;;
5279;SDS011;2663;53.588;10.010;2023-07-30T14:48:55;5.53;;;1.63;;
5279;SDS011;2663;53.588;10.010;2023-07-30T14:51:22;8.20;;;1.90;;
5279;SDS011;2663;53.588;10.010;2023-07-30T14:53:49;6.97;;;2.33;;
5279;SDS011;2663;53.588;10.010;2023-07-30T14:56:15;5.47;;;1.40;;
5279;SDS011;2663;53.588;10.010;2023-07-30T14:58:42;8.77;;;1.40;;
5279;SDS011;2663;53.588;10.010;2023-07-30T15:01:09;12.43;;;2.10;;
5279;SDS011;2663;53.588;10.010;2023-07-30T15:03:37;7.93;;;2.00;;
5279;SDS011;2663;53.588;10.010;2023-07-30T15:06:04;7.50;;;1.70;;